Time,TemperatureF,DewpointF,PressureIn,WindDirection,WindDirectionDegrees,WindSpeedMPH,WindSpeedGustMPH,Humidity,HourlyPrecipIn,Conditions,Clouds,dailyrainin,SoftwareType,DateUTC
2013-02-26 00:03:00,34.9,32.8,30.23,SSE,158,0.0,0.4,92,0.00,,,0.00,WUHU216HW,2013-02-25 23:03:00,
2013-02-26 00:08:00,34.9,32.8,30.23,SSE,158,0.0,0.0,92,0.00,,,0.00,WUHU216HW,2013-02-25 23:08:00,
2013-02-26 00:13:00,34.9,32.8,30.23,SSE,158,0.4,0.4,92,0.00,,,0.00,WUHU216HW,2013-02-25 23:13:00,
2013-02-26 00:18:00,34.9,32.8,30.23,SSW,203,0.4,0.7,92,0.00,,,0.00,WUHU216HW,2013-02-25 23:18:00,
2013-02-26 00:23:00,34.9,33.0,30.22,WSW,248,0.4,0.7,93,0.00,,,0.00,WUHU216HW,2013-02-25 23:23:00,
2013-02-26 00:28:00,34.9,33.0,30.22,SSW,203,0.7,0.7,93,0.00,,,0.00,WUHU216HW,2013-02-25 23:28:00,
2013-02-26 00:33:00,34.9,33.0,30.22,SE,135,0.2,0.7,93,0.00,,,0.00,WUHU216HW,2013-02-25 23:33:00,
2013-02-26 00:38:00,34.9,33.0,30.22,East,90,0.9,1.1,93,0.00,,,0.00,WUHU216HW,2013-02-25 23:38:00,
2013-02-26 00:43:00,34.9,33.0,30.22,East,90,0.0,1.1,93,0.00,,,0.00,WUHU216HW,2013-02-25 23:43:00,
2013-02-26 00:48:00,34.9,33.0,30.22,ESE,113,0.7,0.9,93,0.00,,,0.00,WUHU216HW,2013-02-25 23:48:00,
2013-02-26 00:53:00,34.9,33.0,30.23,ENE,68,0.7,0.7,93,0.00,,,0.00,WUHU216HW,2013-02-25 23:53:00,
2013-02-26 00:58:00,34.7,32.9,30.23,SE,135,0.4,0.7,93,0.00,,,0.00,WUHU216HW,2013-02-25 23:58:00,
2013-02-26 01:03:00,34.7,32.9,30.23,ESE,113,0.9,0.9,93,0.00,,,0.00,WUHU216HW,2013-02-26 00:03:00,
2013-02-26 01:08:00,34.9,33.0,30.23,SE,135,0.7,0.9,93,0.00,,,0.00,WUHU216HW,2013-02-26 00:08:00,
2013-02-26 01:13:00,34.9,33.0,30.23,SE,135,0.4,0.9,93,0.00,,,0.00,WUHU216HW,2013-02-26 00:13:00,
2013-02-26 01:18:00,34.9,33.0,30.23,East,90,0.0,0.7,93,0.00,,,0.00,WUHU216HW,2013-02-26 00:18:00,
2013-02-26 01:23:00,34.9,33.0,30.24,ESE,113,1.3,1.3,93,0.00,,,0.00,WUHU216HW,2013-02-26 00:23:00,
2013-02-26 01:28:00,35.1,33.2,30.24,SE,135,0.4,1.3,93,0.00,,,0.00,WUHU216HW,2013-02-26 00:28:00,
2013-02-26 01:33:00,35.1,33.2,30.24,SE,135,0.0,1.3,93,0.00,,,0.00,WUHU216HW,2013-02-26 00:33:00,
2013-02-26 01:38:00,35.1,33.2,30.24,SSE,158,0.0,0.4,93,0.00,,,0.00,WUHU216HW,2013-02-26 00:38:00,
2013-02-26 01:43:00,34.9,33.0,30.24,SSE,158,0.0,0.0,93,0.00,,,0.00,WUHU216HW,2013-02-26 00:43:00,
2013-02-26 01:48:00,34.9,33.0,30.24,SW,225,0.9,0.9,93,0.00,,,0.00,WUHU216HW,2013-02-26 00:48:00,
2013-02-26 01:53:00,34.9,33.0,30.24,SSW,203,0.4,0.9,93,0.00,,,0.00,WUHU216HW,2013-02-26 00:53:00,
2013-02-26 01:58:00,34.9,33.0,30.24,SSW,203,0.0,0.9,93,0.00,,,0.00,WUHU216HW,2013-02-26 00:58:00,
2013-02-26 02:03:00,34.9,33.0,30.24,NW,315,0.4,0.4,93,0.00,,,0.00,WUHU216HW,2013-02-26 01:03:00,
2013-02-26 02:08:00,34.9,33.0,30.24,NW,315,0.0,0.4,93,0.00,,,0.00,WUHU216HW,2013-02-26 01:08:00,
2013-02-26 02:13:00,34.7,32.9,30.24,NW,315,0.0,0.4,93,0.00,,,0.00,WUHU216HW,2013-02-26 01:13:00,
2013-02-26 02:18:00,34.7,32.9,30.24,NW,315,0.0,0.0,93,0.00,,,0.00,WUHU216HW,2013-02-26 01:18:00,
2013-02-26 02:23:00,34.7,32.9,30.24,NW,315,0.0,0.0,93,0.00,,,0.00,WUHU216HW,2013-02-26 01:23:00,
2013-02-26 02:28:00,34.7,32.9,30.24,NW,315,0.0,0.0,93,0.00,,,0.00,WUHU216HW,2013-02-26 01:28:00,
2013-02-26 02:33:00,34.7,32.9,30.24,NW,315,0.0,0.0,93,0.00,,,0.00,WUHU216HW,2013-02-26 01:33:00,
2013-02-26 02:38:00,34.6,32.7,30.24,NW,315,0.0,0.0,93,0.00,,,0.00,WUHU216HW,2013-02-26 01:38:00,
2013-02-26 02:43:00,34.6,32.7,30.24,NW,315,0.0,0.0,93,0.00,,,0.00,WUHU216HW,2013-02-26 01:43:00,
2013-02-26 02:48:00,34.6,32.7,30.24,NW,315,0.0,0.0,93,0.00,,,0.00,WUHU216HW,2013-02-26 01:48:00,
2013-02-26 02:53:00,34.6,32.7,30.24,East,90,0.0,0.0,93,0.00,,,0.00,WUHU216HW,2013-02-26 01:53:00,
2013-02-26 02:58:00,34.6,32.7,30.24,East,90,0.0,0.0,93,0.00,,,0.00,WUHU216HW,2013-02-26 01:58:00,
2013-02-26 03:03:00,34.6,32.7,30.24,East,90,0.0,0.0,93,0.00,,,0.00,WUHU216HW,2013-02-26 02:03:00,
2013-02-26 03:08:00,34.6,32.7,30.23,East,90,0.0,0.0,93,0.00,,,0.00,WUHU216HW,2013-02-26 02:08:00,
2013-02-26 03:13:00,34.6,32.7,30.24,East,90,0.0,0.0,93,0.00,,,0.00,WUHU216HW,2013-02-26 02:13:00,
2013-02-26 03:18:00,34.6,32.7,30.23,East,90,0.0,0.0,93,0.00,,,0.00,WUHU216HW,2013-02-26 02:18:00,
2013-02-26 03:23:00,34.6,32.7,30.24,SW,225,0.7,0.9,93,0.00,,,0.00,WUHU216HW,2013-02-26 02:23:00,
2013-02-26 03:28:00,34.7,32.9,30.24,SSW,203,0.9,0.9,93,0.00,,,0.00,WUHU216HW,2013-02-26 02:28:00,
2013-02-26 03:33:00,34.7,32.9,30.24,SSE,158,0.4,0.9,93,0.00,,,0.00,WUHU216HW,2013-02-26 02:33:00,
2013-02-26 03:38:00,34.7,32.9,30.24,SSE,158,0.2,0.9,93,0.00,,,0.00,WUHU216HW,2013-02-26 02:38:00,
2013-02-26 03:43:00,34.7,32.9,30.24,SSE,158,0.0,0.4,93,0.00,,,0.00,WUHU216HW,2013-02-26 02:43:00,
2013-02-26 03:48:00,34.7,32.9,30.24,SSE,158,0.0,0.2,93,0.00,,,0.00,WUHU216HW,2013-02-26 02:48:00,
2013-02-26 03:53:00,34.7,32.9,30.24,SSE,158,0.0,0.0,93,0.00,,,0.00,WUHU216HW,2013-02-26 02:53:00,
2013-02-26 03:58:00,34.7,32.9,30.24,SSE,158,0.2,0.2,93,0.00,,,0.00,WUHU216HW,2013-02-26 02:58:00,
2013-02-26 04:03:00,34.7,32.9,30.24,South,180,0.9,0.9,93,0.00,,,0.00,WUHU216HW,2013-02-26 03:03:00,
2013-02-26 04:08:00,34.7,32.9,30.24,SSW,203,0.0,0.9,93,0.00,,,0.00,WUHU216HW,2013-02-26 03:08:00,
2013-02-26 04:13:00,34.7,32.9,30.24,SSW,203,0.0,0.9,93,0.00,,,0.00,WUHU216HW,2013-02-26 03:13:00,
2013-02-26 04:18:00,34.7,32.9,30.23,SSW,203,0.0,0.0,93,0.00,,,0.00,WUHU216HW,2013-02-26 03:18:00,
2013-02-26 04:23:00,34.7,32.9,30.23,SE,135,0.7,1.8,93,0.00,,,0.00,WUHU216HW,2013-02-26 03:23:00,
2013-02-26 04:28:00,34.7,32.9,30.23,SE,135,0.0,1.8,93,0.00,,,0.00,WUHU216HW,2013-02-26 03:28:00,
2013-02-26 04:33:00,34.9,33.0,30.23,ESE,113,0.0,0.9,93,0.00,,,0.00,WUHU216HW,2013-02-26 03:33:00,
2013-02-26 04:38:00,34.9,33.0,30.23,ESE,113,0.0,0.4,93,0.00,,,0.00,WUHU216HW,2013-02-26 03:38:00,
2013-02-26 04:43:00,34.9,33.0,30.24,ESE,113,0.0,0.4,93,0.00,,,0.00,WUHU216HW,2013-02-26 03:43:00,
2013-02-26 04:48:00,34.9,33.0,30.23,ESE,113,0.0,0.0,93,0.00,,,0.00,WUHU216HW,2013-02-26 03:48:00,
2013-02-26 04:53:00,34.7,33.1,30.24,East,90,0.0,0.0,94,0.00,,,0.00,WUHU216HW,2013-02-26 03:53:00,
2013-02-26 04:58:00,34.7,32.9,30.24,East,90,0.0,0.0,93,0.00,,,0.00,WUHU216HW,2013-02-26 03:58:00,
2013-02-26 05:03:00,34.7,33.1,30.24,East,90,0.0,0.0,94,0.00,,,0.00,WUHU216HW,2013-02-26 04:03:00,
2013-02-26 05:08:00,34.7,33.1,30.24,East,90,0.0,0.0,94,0.00,,,0.00,WUHU216HW,2013-02-26 04:08:00,
2013-02-26 05:13:00,34.7,33.1,30.24,East,90,0.0,0.0,94,0.00,,,0.00,WUHU216HW,2013-02-26 04:13:00,
2013-02-26 05:18:00,34.6,32.9,30.24,SSW,203,1.1,1.1,94,0.00,,,0.00,WUHU216HW,2013-02-26 04:18:00,
2013-02-26 05:23:00,34.7,33.1,30.23,NW,315,0.0,1.1,94,0.00,,,0.00,WUHU216HW,2013-02-26 04:23:00,
2013-02-26 05:28:00,34.6,32.9,30.23,SE,135,1.1,1.1,94,0.00,,,0.00,WUHU216HW,2013-02-26 04:28:00,
2013-02-26 05:33:00,34.6,32.9,30.23,ESE,113,0.9,1.1,94,0.00,,,0.00,WUHU216HW,2013-02-26 04:33:00,
2013-02-26 05:38:00,34.6,32.9,30.23,ESE,113,0.0,1.1,94,0.00,,,0.00,WUHU216HW,2013-02-26 04:38:00,
2013-02-26 05:43:00,34.6,32.9,30.22,ESE,113,1.3,1.3,94,0.00,,,0.00,WUHU216HW,2013-02-26 04:43:00,
2013-02-26 05:48:00,34.6,32.9,30.22,SSE,158,0.4,1.3,94,0.00,,,0.00,WUHU216HW,2013-02-26 04:48:00,
2013-02-26 05:53:00,34.6,32.9,30.23,SE,135,0.7,1.3,94,0.00,,,0.00,WUHU216HW,2013-02-26 04:53:00,
2013-02-26 05:58:00,34.4,32.8,30.23,ENE,68,0.0,0.9,94,0.00,,,0.00,WUHU216HW,2013-02-26 04:58:00,
2013-02-26 06:00:00,34.4,32.8,30.22,ENE,68,0.0,0.9,94,0.00,,,0.00,WUHU216HW,2013-02-26 05:00:00,
2013-02-26 06:05:00,34.6,32.9,30.23,SE,135,1.8,1.8,94,0.00,,,0.00,WUHU216HW,2013-02-26 05:05:00,
2013-02-26 06:10:00,34.6,32.9,30.23,ESE,113,0.0,1.8,94,0.00,,,0.00,WUHU216HW,2013-02-26 05:10:00,
2013-02-26 06:15:00,34.6,32.9,30.23,ESE,113,0.2,1.8,94,0.00,,,0.00,WUHU216HW,2013-02-26 05:15:00,
2013-02-26 06:20:00,34.6,32.9,30.22,SE,135,0.4,0.9,94,0.00,,,0.00,WUHU216HW,2013-02-26 05:20:00,
2013-02-26 06:25:00,34.6,32.9,30.23,SSE,158,0.4,0.9,94,0.00,,,0.00,WUHU216HW,2013-02-26 05:25:00,
2013-02-26 06:30:00,34.7,33.1,30.23,South,180,0.0,0.4,94,0.00,,,0.00,WUHU216HW,2013-02-26 05:30:00,
2013-02-26 06:35:00,34.9,33.3,30.22,SSE,158,0.0,0.4,94,0.00,,,0.00,WUHU216HW,2013-02-26 05:35:00,
2013-02-26 06:40:00,34.9,33.3,30.22,SSE,158,0.0,0.4,94,0.00,,,0.00,WUHU216HW,2013-02-26 05:40:00,
2013-02-26 06:45:00,34.9,33.3,30.23,South,180,0.0,0.4,94,0.00,,,0.00,WUHU216HW,2013-02-26 05:45:00,
2013-02-26 06:50:00,35.1,33.5,30.23,SSE,158,0.4,0.4,94,0.00,,,0.00,WUHU216HW,2013-02-26 05:50:00,
2013-02-26 06:55:00,35.1,33.5,30.23,SSE,158,0.9,0.9,94,0.00,,,0.00,WUHU216HW,2013-02-26 05:55:00,
2013-02-26 07:00:00,35.3,33.7,30.23,North,0,1.1,1.1,94,0.00,,,0.00,WUHU216HW,2013-02-26 06:00:00,
2013-02-26 07:05:00,35.1,33.5,30.23,North,0,0.0,1.1,94,0.00,,,0.00,WUHU216HW,2013-02-26 06:05:00,
2013-02-26 07:10:00,35.1,33.5,30.23,North,0,0.0,1.1,94,0.00,,,0.00,WUHU216HW,2013-02-26 06:10:00,
2013-02-26 07:15:00,35.1,33.5,30.23,SE,135,0.7,0.7,94,0.00,,,0.00,WUHU216HW,2013-02-26 06:15:00,
2013-02-26 07:20:00,35.1,33.5,30.23,SE,135,0.7,0.7,94,0.00,,,0.00,WUHU216HW,2013-02-26 06:20:00,
2013-02-26 07:25:00,35.1,33.5,30.24,SE,135,0.7,0.7,94,0.00,,,0.00,WUHU216HW,2013-02-26 06:25:00,
2013-02-26 07:27:00,35.1,33.5,30.23,SE,135,0.7,0.7,94,0.00,,,0.00,WUHU216HW,2013-02-26 06:27:00,
2013-02-26 07:30:00,35.1,33.5,30.23,SE,135,0.7,0.7,94,0.00,,,0.00,WUHU216HW,2013-02-26 06:30:00,
2013-02-26 07:35:00,35.1,33.5,30.23,SE,135,0.7,0.7,94,0.00,,,0.00,WUHU216HW,2013-02-26 06:35:00,
2013-02-26 08:32:00,36.7,35.1,30.25,North,0,1.1,1.1,94,0.00,,,0.00,WUHU216HW,2013-02-26 07:32:00,
2013-02-26 08:37:00,36.7,35.1,30.25,NNE,23,0.7,1.8,94,0.00,,,0.00,WUHU216HW,2013-02-26 07:37:00,
2013-02-26 08:42:00,36.7,35.1,30.25,NNE,23,0.2,1.8,94,0.00,,,0.00,WUHU216HW,2013-02-26 07:42:00,
2013-02-26 08:47:00,36.7,35.1,30.25,North,0,1.8,2.0,94,0.00,,,0.00,WUHU216HW,2013-02-26 07:47:00,
2013-02-26 08:52:00,36.7,35.1,30.25,NNE,23,3.4,3.4,94,0.00,,,0.00,WUHU216HW,2013-02-26 07:52:00,
2013-02-26 08:57:00,36.7,35.1,30.25,NNE,23,1.3,3.4,94,0.00,,,0.00,WUHU216HW,2013-02-26 07:57:00,
2013-02-26 09:02:00,36.7,34.8,30.25,North,0,1.8,3.4,93,0.00,,,0.00,WUHU216HW,2013-02-26 08:02:00,
2013-02-26 09:07:00,36.7,34.8,30.26,NNE,23,2.9,4.0,93,0.00,,,0.00,WUHU216HW,2013-02-26 08:07:00,
2013-02-26 09:12:00,36.5,34.7,30.26,North,0,1.6,4.9,93,0.00,,,0.00,WUHU216HW,2013-02-26 08:12:00,
2013-02-26 09:17:00,36.5,34.7,30.26,North,0,2.7,4.9,93,0.00,,,0.00,WUHU216HW,2013-02-26 08:17:00,
2013-02-26 09:22:00,36.5,34.7,30.26,NNE,23,1.3,2.7,93,0.00,,,0.00,WUHU216HW,2013-02-26 08:22:00,
2013-02-26 09:27:00,36.5,34.7,30.26,North,0,2.9,3.1,93,0.00,,,0.00,WUHU216HW,2013-02-26 08:27:00,
2013-02-26 09:32:00,36.5,34.7,30.26,NE,45,0.7,3.1,93,0.00,,,0.00,WUHU216HW,2013-02-26 08:32:00,
2013-02-26 09:37:00,36.7,34.8,30.25,NNE,23,1.8,2.9,93,0.00,,,0.00,WUHU216HW,2013-02-26 08:37:00,
2013-02-26 09:42:00,36.7,34.8,30.25,NNE,23,3.1,3.1,93,0.00,,,0.00,WUHU216HW,2013-02-26 08:42:00,
2013-02-26 09:47:00,36.7,34.8,30.25,North,0,0.7,3.1,93,0.00,,,0.00,WUHU216HW,2013-02-26 08:47:00,
2013-02-26 09:52:00,36.7,34.6,30.26,NNE,23,2.2,3.1,92,0.00,,,0.00,WUHU216HW,2013-02-26 08:52:00,
2013-02-26 09:57:00,36.9,34.7,30.26,NNE,23,1.3,2.5,92,0.00,,,0.00,WUHU216HW,2013-02-26 08:57:00,
2013-02-26 10:02:00,36.9,34.7,30.26,NNE,23,0.7,2.5,92,0.00,,,0.00,WUHU216HW,2013-02-26 09:02:00,
2013-02-26 10:07:00,36.9,34.7,30.26,NNE,23,1.1,2.5,92,0.00,,,0.00,WUHU216HW,2013-02-26 09:07:00,
2013-02-26 10:12:00,36.9,34.7,30.26,NE,45,0.0,1.1,92,0.00,,,0.00,WUHU216HW,2013-02-26 09:12:00,
2013-02-26 10:17:00,36.9,34.7,30.26,NNE,23,1.6,1.6,92,0.00,,,0.00,WUHU216HW,2013-02-26 09:17:00,
2013-02-26 10:22:00,37.1,34.9,30.26,NNE,23,0.0,1.6,92,0.00,,,0.00,WUHU216HW,2013-02-26 09:22:00,
2013-02-26 10:27:00,37.1,34.9,30.26,NNE,23,1.8,1.8,92,0.00,,,0.00,WUHU216HW,2013-02-26 09:27:00,
2013-02-26 10:32:00,37.1,34.7,30.26,NNE,23,4.0,4.0,91,0.00,,,0.00,WUHU216HW,2013-02-26 09:32:00,
2013-02-26 10:37:00,37.1,34.7,30.26,NNE,23,1.3,4.0,91,0.00,,,0.00,WUHU216HW,2013-02-26 09:37:00,
2013-02-26 10:42:00,37.3,34.8,30.26,NNE,23,1.8,4.0,91,0.00,,,0.00,WUHU216HW,2013-02-26 09:42:00,
2013-02-26 10:47:00,37.3,34.8,30.27,NNE,23,1.6,2.7,91,0.00,,,0.00,WUHU216HW,2013-02-26 09:47:00,
2013-02-26 10:52:00,37.3,34.8,30.26,NNE,23,3.1,3.1,91,0.00,,,0.00,WUHU216HW,2013-02-26 09:52:00,
2013-02-26 10:57:00,37.4,35.0,30.26,NE,45,0.9,3.1,91,0.00,,,0.00,WUHU216HW,2013-02-26 09:57:00,
2013-02-26 11:02:00,37.6,35.2,30.27,NNE,23,0.7,3.1,91,0.00,,,0.00,WUHU216HW,2013-02-26 10:02:00,
2013-02-26 11:07:00,37.6,34.9,30.27,NNE,23,3.4,3.4,90,0.00,,,0.00,WUHU216HW,2013-02-26 10:07:00,
2013-02-26 11:12:00,37.6,34.9,30.27,NNE,23,1.8,3.4,90,0.00,,,0.00,WUHU216HW,2013-02-26 10:12:00,
2013-02-26 11:17:00,37.6,34.9,30.27,NNE,23,2.5,3.4,90,0.00,,,0.00,WUHU216HW,2013-02-26 10:17:00,
2013-02-26 11:22:00,37.6,34.9,30.27,NNE,23,2.0,2.7,90,0.00,,,0.00,WUHU216HW,2013-02-26 10:22:00,
2013-02-26 11:27:00,37.6,34.9,30.27,NE,45,0.9,2.7,90,0.00,,,0.00,WUHU216HW,2013-02-26 10:27:00,
2013-02-26 11:32:00,37.8,35.4,30.27,NE,45,1.1,2.0,91,0.00,,,0.00,WUHU216HW,2013-02-26 10:32:00,
2013-02-26 11:37:00,37.8,35.1,30.27,North,0,1.1,2.9,90,0.00,,,0.00,WUHU216HW,2013-02-26 10:37:00,
2013-02-26 11:42:00,37.6,34.9,30.27,NE,45,0.4,2.9,90,0.00,,,0.00,WUHU216HW,2013-02-26 10:42:00,
2013-02-26 11:47:00,37.8,35.1,30.27,NE,45,0.4,1.1,90,0.00,,,0.00,WUHU216HW,2013-02-26 10:47:00,
2013-02-26 11:52:00,37.8,35.1,30.27,North,0,0.2,1.1,90,0.00,,,0.00,WUHU216HW,2013-02-26 10:52:00,
2013-02-26 11:57:00,37.8,35.1,30.27,NNE,23,3.4,3.4,90,0.00,,,0.00,WUHU216HW,2013-02-26 10:57:00,
2013-02-26 12:02:00,37.8,35.1,30.27,NNE,23,2.2,3.4,90,0.00,,,0.00,WUHU216HW,2013-02-26 11:02:00,
2013-02-26 12:07:00,37.6,34.9,30.28,NE,45,1.1,3.4,90,0.00,,,0.00,WUHU216HW,2013-02-26 11:07:00,
2013-02-26 12:12:00,37.4,34.7,30.27,NE,45,2.7,2.7,90,0.00,,,0.00,WUHU216HW,2013-02-26 11:12:00,
2013-02-26 12:17:00,37.4,34.7,30.27,NNE,23,0.2,2.7,90,0.00,,,0.00,WUHU216HW,2013-02-26 11:17:00,
2013-02-26 12:22:00,37.6,34.9,30.27,North,0,1.3,2.7,90,0.00,,,0.00,WUHU216HW,2013-02-26 11:22:00,
2013-02-26 12:27:00,37.6,34.9,30.27,ESE,113,2.0,4.5,90,0.00,,,0.00,WUHU216HW,2013-02-26 11:27:00,
2013-02-26 12:32:00,37.6,34.9,30.27,North,0,1.8,4.5,90,0.00,,,0.00,WUHU216HW,2013-02-26 11:32:00,
2013-02-26 12:37:00,37.4,34.7,30.27,North,0,3.1,4.0,90,0.00,,,0.00,WUHU216HW,2013-02-26 11:37:00,
2013-02-26 12:42:00,37.4,34.7,30.28,NNE,23,3.4,3.4,90,0.00,,,0.00,WUHU216HW,2013-02-26 11:42:00,
2013-02-26 12:47:00,37.4,34.7,30.28,NNE,23,1.3,3.4,90,0.00,,,0.00,WUHU216HW,2013-02-26 11:47:00,
2013-02-26 12:52:00,37.4,34.7,30.27,North,0,4.7,4.7,90,0.00,,,0.00,WUHU216HW,2013-02-26 11:52:00,
2013-02-26 12:57:00,37.6,34.9,30.27,NNE,23,2.2,4.7,90,0.00,,,0.00,WUHU216HW,2013-02-26 11:57:00,
2013-02-26 13:02:00,37.6,34.9,30.27,North,0,1.6,4.7,90,0.00,,,0.00,WUHU216HW,2013-02-26 12:02:00,
2013-02-26 13:07:00,37.4,34.7,30.28,NNE,23,3.4,4.5,90,0.00,,,0.00,WUHU216HW,2013-02-26 12:07:00,
2013-02-26 13:12:00,37.6,34.9,30.28,NNE,23,1.8,4.5,90,0.00,,,0.00,WUHU216HW,2013-02-26 12:12:00,
2013-02-26 13:17:00,37.4,34.7,30.27,North,0,2.5,3.4,90,0.00,,,0.00,WUHU216HW,2013-02-26 12:17:00,
2013-02-26 13:22:00,37.4,34.7,30.28,NNE,23,1.3,3.1,90,0.00,,,0.00,WUHU216HW,2013-02-26 12:22:00,
2013-02-26 13:27:00,37.4,34.7,30.27,NNE,23,4.3,4.3,90,0.00,,,0.00,WUHU216HW,2013-02-26 12:27:00,
2013-02-26 13:32:00,37.4,34.7,30.28,NE,45,1.8,4.3,90,0.00,,,0.00,WUHU216HW,2013-02-26 12:32:00,
2013-02-26 13:37:00,37.4,34.7,30.28,NNE,23,2.2,4.7,90,0.00,,,0.00,WUHU216HW,2013-02-26 12:37:00,
2013-02-26 13:42:00,37.4,34.7,30.28,NNE,23,3.1,4.7,90,0.00,,,0.00,WUHU216HW,2013-02-26 12:42:00,
2013-02-26 13:47:00,37.4,34.7,30.27,NNE,23,3.4,4.0,90,0.00,,,0.00,WUHU216HW,2013-02-26 12:47:00,
2013-02-26 13:52:00,37.4,34.5,30.28,NNE,23,4.5,4.5,89,0.00,,,0.00,WUHU216HW,2013-02-26 12:52:00,
2013-02-26 13:57:00,37.4,34.5,30.28,NE,45,2.5,4.5,89,0.00,,,0.00,WUHU216HW,2013-02-26 12:57:00,
2013-02-26 14:02:00,37.4,34.5,30.27,NNE,23,4.9,4.9,89,0.00,,,0.00,WUHU216HW,2013-02-26 13:02:00,
2013-02-26 14:07:00,37.3,34.0,30.27,NE,45,2.0,4.9,88,0.00,,,0.00,WUHU216HW,2013-02-26 13:07:00,
2013-02-26 14:12:00,37.3,34.0,30.27,NNE,23,2.0,4.9,88,0.00,,,0.00,WUHU216HW,2013-02-26 13:12:00,
2013-02-26 14:17:00,37.3,34.0,30.28,NNE,23,2.2,3.8,88,0.00,,,0.00,WUHU216HW,2013-02-26 13:17:00,
2013-02-26 14:22:00,37.3,34.0,30.27,NNE,23,0.9,5.4,88,0.00,,,0.00,WUHU216HW,2013-02-26 13:22:00,
2013-02-26 14:27:00,37.3,34.0,30.27,NNE,23,1.8,5.4,88,0.00,,,0.00,WUHU216HW,2013-02-26 13:27:00,
2013-02-26 14:32:00,37.1,33.9,30.27,North,0,2.2,2.7,88,0.00,,,0.00,WUHU216HW,2013-02-26 13:32:00,
2013-02-26 14:37:00,37.1,33.9,30.28,NNE,23,1.6,3.8,88,0.00,,,0.00,WUHU216HW,2013-02-26 13:37:00,
2013-02-26 14:42:00,37.1,33.9,30.28,NNE,23,1.3,3.8,88,0.00,,,0.00,WUHU216HW,2013-02-26 13:42:00,
2013-02-26 14:47:00,36.9,33.7,30.28,North,0,2.5,5.1,88,0.00,,,0.00,WUHU216HW,2013-02-26 13:47:00,
2013-02-26 14:52:00,36.9,33.7,30.28,NNE,23,3.6,5.1,88,0.00,,,0.00,WUHU216HW,2013-02-26 13:52:00,
2013-02-26 14:57:00,36.7,33.5,30.27,NNE,23,3.4,4.0,88,0.00,,,0.00,WUHU216HW,2013-02-26 13:57:00,
2013-02-26 15:02:00,36.7,33.5,30.27,ENE,68,1.8,3.6,88,0.00,,,0.00,WUHU216HW,2013-02-26 14:02:00,
2013-02-26 15:07:00,36.7,33.5,30.28,North,0,2.5,3.4,88,0.00,,,0.00,WUHU216HW,2013-02-26 14:07:00,
2013-02-26 15:12:00,36.5,33.3,30.27,NNE,23,2.2,2.5,88,0.00,,,0.00,WUHU216HW,2013-02-26 14:12:00,
2013-02-26 15:17:00,36.4,33.1,30.28,NNE,23,1.8,2.5,88,0.00,,,0.00,WUHU216HW,2013-02-26 14:17:00,
2013-02-26 15:22:00,36.4,33.1,30.28,North,0,2.2,2.2,88,0.00,,,0.00,WUHU216HW,2013-02-26 14:22:00,
2013-02-26 15:27:00,36.4,33.1,30.28,NNE,23,2.5,2.5,88,0.00,,,0.00,WUHU216HW,2013-02-26 14:27:00,
2013-02-26 15:33:00,36.2,33.0,30.28,NNE,23,4.9,4.9,88,0.00,,,0.00,WUHU216HW,2013-02-26 14:33:00,
2013-02-26 15:38:00,36.0,33.0,30.28,NNE,23,4.3,6.3,89,0.00,,,0.00,WUHU216HW,2013-02-26 14:38:00,
2013-02-26 15:43:00,36.0,33.0,30.28,NNE,23,1.8,6.3,89,0.00,,,0.00,WUHU216HW,2013-02-26 14:43:00,
2013-02-26 15:48:00,35.8,32.9,30.28,North,0,1.8,4.3,89,0.00,,,0.00,WUHU216HW,2013-02-26 14:48:00,
2013-02-26 15:53:00,35.6,32.7,30.28,North,0,3.8,3.8,89,0.00,,,0.00,WUHU216HW,2013-02-26 14:53:00,
2013-02-26 15:58:00,35.6,32.7,30.28,NNE,23,1.1,3.8,89,0.00,,,0.00,WUHU216HW,2013-02-26 14:58:00,
2013-02-26 16:03:00,35.6,32.7,30.28,ENE,68,1.3,3.8,89,0.00,,,0.00,WUHU216HW,2013-02-26 15:03:00,
2013-02-26 16:08:00,35.6,32.7,30.28,ENE,68,1.3,1.3,89,0.00,,,0.00,WUHU216HW,2013-02-26 15:08:00,
2013-02-26 16:13:00,35.6,32.7,30.28,NNE,23,1.8,2.5,89,0.00,,,0.00,WUHU216HW,2013-02-26 15:13:00,
2013-02-26 16:18:00,35.6,32.7,30.28,NNE,23,2.0,2.5,89,0.00,,,0.00,WUHU216HW,2013-02-26 15:18:00,
2013-02-26 16:23:00,35.5,32.5,30.28,NNE,23,2.5,2.5,89,0.00,,,0.00,WUHU216HW,2013-02-26 15:23:00,
2013-02-26 16:28:00,35.3,32.3,30.28,NNE,23,2.5,2.5,89,0.00,,,0.00,WUHU216HW,2013-02-26 15:28:00,
2013-02-26 16:33:00,35.3,32.6,30.28,NNE,23,0.7,2.5,90,0.00,,,0.00,WUHU216HW,2013-02-26 15:33:00,
2013-02-26 16:38:00,35.3,32.6,30.28,NNE,23,3.4,3.4,90,0.00,,,0.00,WUHU216HW,2013-02-26 15:38:00,
2013-02-26 16:43:00,35.3,32.6,30.28,ENE,68,1.8,3.4,90,0.00,,,0.00,WUHU216HW,2013-02-26 15:43:00,
2013-02-26 16:48:00,35.3,32.6,30.28,NNE,23,1.6,3.4,90,0.00,,,0.00,WUHU216HW,2013-02-26 15:48:00,
2013-02-26 16:53:00,35.1,32.4,30.28,NNE,23,1.8,1.8,90,0.00,,,0.00,WUHU216HW,2013-02-26 15:53:00,
2013-02-26 16:58:00,34.9,32.2,30.29,NE,45,4.0,4.0,90,0.00,,,0.00,WUHU216HW,2013-02-26 15:58:00,
2013-02-26 17:03:00,34.9,32.2,30.28,NNE,23,3.6,4.0,90,0.00,,,0.00,WUHU216HW,2013-02-26 16:03:00,
2013-02-26 17:08:00,34.9,32.2,30.28,NE,45,1.1,4.0,90,0.00,,,0.00,WUHU216HW,2013-02-26 16:08:00,
2013-02-26 17:13:00,34.7,32.3,30.29,NE,45,2.9,3.6,91,0.00,,,0.00,WUHU216HW,2013-02-26 16:13:00,
2013-02-26 17:18:00,34.7,32.3,30.29,NNE,23,2.9,3.1,91,0.00,,,0.00,WUHU216HW,2013-02-26 16:18:00,
2013-02-26 17:23:00,34.7,32.3,30.29,NNE,23,2.9,2.9,91,0.00,,,0.00,WUHU216HW,2013-02-26 16:23:00,
2013-02-26 17:28:00,34.7,32.3,30.29,NNE,23,2.9,2.9,91,0.00,,,0.00,WUHU216HW,2013-02-26 16:28:00,
2013-02-26 17:33:00,34.7,32.3,30.28,NNE,23,2.9,2.9,91,0.00,,,0.00,WUHU216HW,2013-02-26 16:33:00,
2013-02-26 17:38:00,34.6,32.4,30.29,NNE,23,2.5,2.9,92,0.00,,,0.00,WUHU216HW,2013-02-26 16:38:00,
2013-02-26 17:43:00,34.6,32.4,30.29,NNE,23,1.6,2.9,92,0.00,,,0.00,WUHU216HW,2013-02-26 16:43:00,
2013-02-26 17:48:00,34.6,32.4,30.30,NNE,23,3.8,3.8,92,0.00,,,0.00,WUHU216HW,2013-02-26 16:48:00,
2013-02-26 17:53:00,34.6,32.4,30.30,North,0,0.9,3.8,92,0.00,,,0.00,WUHU216HW,2013-02-26 16:53:00,
2013-02-26 17:58:00,34.4,32.2,30.30,NNE,23,0.4,3.8,92,0.00,,,0.00,WUHU216HW,2013-02-26 16:58:00,
2013-02-26 18:03:00,34.4,32.2,30.29,NNE,23,1.6,1.8,92,0.00,,,0.00,WUHU216HW,2013-02-26 17:03:00,
2013-02-26 18:08:00,34.4,32.2,30.29,NNE,23,1.6,2.2,92,0.00,,,0.00,WUHU216HW,2013-02-26 17:08:00,
2013-02-26 18:13:00,34.4,32.2,30.30,NNE,23,1.6,2.2,92,0.00,,,0.00,WUHU216HW,2013-02-26 17:13:00,
2013-02-26 18:18:00,34.4,32.2,30.30,NNE,23,1.6,1.6,92,0.00,,,0.00,WUHU216HW,2013-02-26 17:18:00,
2013-02-26 18:23:00,34.4,32.2,30.30,North,0,4.0,4.0,92,0.00,,,0.00,WUHU216HW,2013-02-26 17:23:00,
2013-02-26 18:28:00,34.4,32.2,30.30,NNE,23,1.8,4.0,92,0.00,,,0.00,WUHU216HW,2013-02-26 17:28:00,
2013-02-26 18:33:00,34.2,32.0,30.30,NNE,23,1.8,4.0,92,0.00,,,0.00,WUHU216HW,2013-02-26 17:33:00,
2013-02-26 18:38:00,34.2,32.0,30.30,NNE,23,2.5,2.7,92,0.00,,,0.00,WUHU216HW,2013-02-26 17:38:00,
2013-02-26 18:43:00,34.2,32.0,30.30,NNE,23,2.0,2.5,92,0.00,,,0.00,WUHU216HW,2013-02-26 17:43:00,
2013-02-26 18:48:00,34.2,32.0,30.30,NE,45,0.9,2.5,92,0.00,,,0.00,WUHU216HW,2013-02-26 17:48:00,
2013-02-26 18:53:00,34.2,32.0,30.31,NE,45,2.5,2.5,92,0.00,,,0.00,WUHU216HW,2013-02-26 17:53:00,
2013-02-26 18:58:00,34.2,32.0,30.31,NNE,23,2.7,3.1,92,0.00,,,0.00,WUHU216HW,2013-02-26 17:58:00,
2013-02-26 19:03:00,34.2,32.0,30.30,North,0,7.6,7.6,92,0.00,,,0.00,WUHU216HW,2013-02-26 18:03:00,
2013-02-26 19:08:00,34.0,31.9,30.30,North,0,1.8,7.6,92,0.00,,,0.00,WUHU216HW,2013-02-26 18:08:00,
2013-02-26 19:13:00,34.0,31.9,30.31,NNE,23,4.7,7.6,92,0.00,,,0.00,WUHU216HW,2013-02-26 18:13:00,
2013-02-26 19:18:00,34.0,32.1,30.31,North,0,2.5,4.7,93,0.00,,,0.00,WUHU216HW,2013-02-26 18:18:00,
2013-02-26 19:23:00,33.8,32.0,30.31,NNE,23,6.0,6.0,93,0.00,,,0.00,WUHU216HW,2013-02-26 18:23:00,
2013-02-26 19:28:00,33.8,32.0,30.32,NNE,23,6.9,6.9,93,0.00,,,0.00,WUHU216HW,2013-02-26 18:28:00,
2013-02-26 19:33:00,33.7,31.8,30.32,NNE,23,3.4,6.9,93,0.00,,,0.00,WUHU216HW,2013-02-26 18:33:00,
2013-02-26 19:38:00,33.7,31.8,30.32,North,0,2.5,6.9,93,0.00,,,0.00,WUHU216HW,2013-02-26 18:38:00,
2013-02-26 19:43:00,33.7,31.5,30.32,NNW,338,2.7,4.9,92,0.00,,,0.00,WUHU216HW,2013-02-26 18:43:00,
2013-02-26 19:48:00,33.5,31.6,30.32,NNE,23,1.6,6.3,93,0.00,,,0.00,WUHU216HW,2013-02-26 18:48:00,
2013-02-26 19:54:00,33.5,31.3,30.32,NE,45,4.3,6.3,92,0.00,,,0.00,WUHU216HW,2013-02-26 18:54:00,
2013-02-26 19:59:00,33.5,31.6,30.32,NNE,23,4.0,4.5,93,0.00,,,0.00,WUHU216HW,2013-02-26 18:59:00,
2013-02-26 20:04:00,33.5,31.6,30.32,NNE,23,3.8,4.5,93,0.00,,,0.00,WUHU216HW,2013-02-26 19:04:00,
2013-02-26 20:09:00,33.5,31.6,30.32,NNE,23,3.1,4.0,93,0.00,,,0.00,WUHU216HW,2013-02-26 19:09:00,
2013-02-26 20:14:00,33.5,31.6,30.33,North,0,2.5,3.8,93,0.00,,,0.00,WUHU216HW,2013-02-26 19:14:00,
2013-02-26 20:19:00,33.5,31.6,30.32,North,0,1.3,3.1,93,0.00,,,0.00,WUHU216HW,2013-02-26 19:19:00,
2013-02-26 20:24:00,33.3,31.4,30.32,NNE,23,1.1,2.5,93,0.00,,,0.00,WUHU216HW,2013-02-26 19:24:00,
2013-02-26 20:29:00,33.3,31.4,30.32,NE,45,0.9,2.5,93,0.00,,,0.00,WUHU216HW,2013-02-26 19:29:00,
2013-02-26 20:34:00,33.3,31.4,30.32,NE,45,1.3,2.0,93,0.00,,,0.00,WUHU216HW,2013-02-26 19:34:00,
2013-02-26 20:39:00,33.3,31.4,30.32,NNE,23,0.0,4.5,93,0.00,,,0.00,WUHU216HW,2013-02-26 19:39:00,
2013-02-26 20:44:00,33.3,31.4,30.32,NNE,23,0.0,4.5,93,0.00,,,0.00,WUHU216HW,2013-02-26 19:44:00,
2013-02-26 20:49:00,33.3,31.4,30.32,NNE,23,0.0,0.0,93,0.00,,,0.00,WUHU216HW,2013-02-26 19:49:00,
2013-02-26 20:54:00,33.1,31.3,30.33,NNE,23,1.1,1.1,93,0.00,,,0.00,WUHU216HW,2013-02-26 19:54:00,
2013-02-26 20:59:00,33.3,31.4,30.33,NNE,23,1.6,3.8,93,0.00,,,0.00,WUHU216HW,2013-02-26 19:59:00,
2013-02-26 21:04:00,33.3,31.4,30.33,North,0,3.4,3.8,93,0.00,,,0.00,WUHU216HW,2013-02-26 20:04:00,
2013-02-26 21:09:00,33.1,31.3,30.33,NNE,23,2.9,4.0,93,0.00,,,0.00,WUHU216HW,2013-02-26 20:09:00,
2013-02-26 21:14:00,33.1,31.3,30.33,NNE,23,4.0,4.0,93,0.00,,,0.00,WUHU216HW,2013-02-26 20:14:00,
2013-02-26 21:19:00,33.1,31.3,30.33,NNE,23,2.5,4.3,93,0.00,,,0.00,WUHU216HW,2013-02-26 20:19:00,
2013-02-26 21:24:00,33.1,31.3,30.33,NNE,23,2.0,4.3,93,0.00,,,0.00,WUHU216HW,2013-02-26 20:24:00,
2013-02-26 21:29:00,32.9,31.2,30.33,NNE,23,3.4,3.4,93,0.00,,,0.00,WUHU216HW,2013-02-26 20:29:00,
2013-02-26 21:34:00,32.9,31.2,30.33,North,0,1.1,3.4,93,0.00,,,0.00,WUHU216HW,2013-02-26 20:34:00,
2013-02-26 21:39:00,33.1,31.3,30.33,North,0,2.5,3.4,93,0.00,,,0.00,WUHU216HW,2013-02-26 20:39:00,
2013-02-26 21:44:00,32.9,31.2,30.33,NNE,23,2.5,3.1,93,0.00,,,0.00,WUHU216HW,2013-02-26 20:44:00,
2013-02-26 21:49:00,32.9,31.2,30.33,NNE,23,0.0,3.1,93,0.00,,,0.00,WUHU216HW,2013-02-26 20:49:00,
2013-02-26 21:54:00,32.9,31.2,30.33,NNE,23,1.8,3.6,93,0.00,,,0.00,WUHU216HW,2013-02-26 20:54:00,
2013-02-26 21:59:00,32.9,31.2,30.33,NNE,23,2.2,3.6,93,0.00,,,0.00,WUHU216HW,2013-02-26 20:59:00,
2013-02-26 22:04:00,32.9,31.2,30.33,NNE,23,2.2,2.2,93,0.00,,,0.00,WUHU216HW,2013-02-26 21:04:00,
2013-02-26 22:09:00,32.9,31.2,30.33,NNE,23,2.2,2.2,93,0.00,,,0.00,WUHU216HW,2013-02-26 21:09:00,
2013-02-26 22:12:00,32.9,31.2,30.33,NNE,23,2.2,2.2,93,0.00,,,0.00,WUHU216HW,2013-02-26 21:12:00,
2013-02-26 22:14:00,32.9,31.2,30.33,NNE,23,2.2,2.2,93,0.00,,,0.00,WUHU216HW,2013-02-26 21:14:00,
2013-02-26 22:19:00,32.9,31.2,30.33,NNE,23,2.2,2.2,93,0.00,,,0.00,WUHU216HW,2013-02-26 21:19:00,
2013-02-26 23:17:00,32.8,31.0,30.33,NNW,338,1.6,1.6,93,0.00,,,0.00,WUHU216HW,2013-02-26 22:17:00,
2013-02-26 23:22:00,32.8,31.0,30.34,NNW,338,1.8,1.8,93,0.00,,,0.00,WUHU216HW,2013-02-26 22:22:00,
2013-02-26 23:27:00,32.8,31.0,30.34,NNW,338,2.2,2.2,93,0.00,,,0.00,WUHU216HW,2013-02-26 22:27:00,
2013-02-26 23:32:00,32.6,30.8,30.34,NNW,338,2.7,2.7,93,0.00,,,0.00,WUHU216HW,2013-02-26 22:32:00,
2013-02-26 23:37:00,32.8,31.0,30.33,NNW,338,0.4,2.7,93,0.00,,,0.00,WUHU216HW,2013-02-26 22:37:00,
2013-02-26 23:42:00,32.6,30.8,30.33,NNW,338,1.1,2.7,93,0.00,,,0.00,WUHU216HW,2013-02-26 22:42:00,
2013-02-26 23:47:00,32.6,30.8,30.33,NNW,338,1.1,1.1,93,0.00,,,0.00,WUHU216HW,2013-02-26 22:47:00,
2013-02-26 23:52:00,32.6,30.8,30.33,NNW,338,1.1,1.1,93,0.00,,,0.00,WUHU216HW,2013-02-26 22:52:00,
2013-02-26 23:57:00,32.6,30.8,30.34,NNW,338,0.7,5.4,93,0.00,,,0.00,WUHU216HW,2013-02-26 22:57:00,